createdAt,value
2024-04-23T00:00:03.355Z,527.00
2024-04-23T00:01:03.391Z,525.00
2024-04-23T00:02:03.386Z,524.00
2024-04-23T00:03:03.358Z,522.00
2024-04-23T00:04:03.421Z,524.00
2024-04-23T00:05:03.439Z,523.00
2024-04-23T00:06:03.347Z,523.00
2024-04-23T00:07:03.388Z,521.00
2024-04-23T00:08:03.509Z,522.00
2024-04-23T00:09:03.479Z,523.00
2024-04-23T00:10:03.544Z,523.00
2024-04-23T00:11:03.948Z,524.00
2024-04-23T00:12:03.669Z,523.00
2024-04-23T00:13:03.728Z,522.00
2024-04-23T00:14:03.773Z,523.00
2024-04-23T00:15:03.862Z,522.00
2024-04-23T00:16:03.877Z,522.00
2024-04-23T00:17:03.987Z,523.00
2024-04-23T00:18:04.079Z,524.00
2024-04-23T00:19:04.035Z,527.00
2024-04-23T00:20:04.283Z,527.00
2024-04-23T00:21:04.144Z,527.00
2024-04-23T00:22:04.224Z,528.00
2024-04-23T00:23:04.314Z,528.00
2024-04-23T00:24:04.346Z,530.00
2024-04-23T00:25:04.440Z,531.00
2024-04-23T00:26:04.535Z,530.00
2024-04-23T00:27:04.542Z,528.00
2024-04-23T00:28:04.596Z,526.00
2024-04-23T00:29:04.671Z,526.00
2024-04-23T00:30:04.728Z,527.00
2024-04-23T00:31:04.748Z,528.00
2024-04-23T00:32:05.007Z,529.00
2024-04-23T00:33:04.983Z,527.00
2024-04-23T00:34:04.943Z,524.00
2024-04-23T00:35:05.034Z,525.00
2024-04-23T00:36:05.076Z,524.00
2024-04-23T00:37:05.137Z,523.00
2024-04-23T00:38:05.199Z,522.00
2024-04-23T00:39:05.259Z,522.00
2024-04-23T00:40:05.340Z,521.00
2024-04-23T00:41:05.397Z,521.00
2024-04-23T00:42:05.676Z,520.00
2024-04-23T00:43:05.528Z,520.00
2024-04-23T00:44:05.602Z,517.00
2024-04-23T00:45:05.633Z,517.00
2024-04-23T00:46:05.743Z,518.00
2024-04-23T00:47:05.783Z,518.00
2024-04-23T00:48:05.863Z,518.00
2024-04-23T00:49:05.864Z,518.00
2024-04-23T00:50:05.981Z,517.00
2024-04-23T00:51:06.003Z,517.00
2024-04-23T00:52:06.084Z,519.00
2024-04-23T00:53:06.164Z,521.00
2024-04-23T00:54:06.203Z,522.00
2024-04-23T00:55:06.280Z,523.00
2024-04-23T00:56:06.346Z,521.00
2024-04-23T00:57:06.400Z,521.00
2024-04-23T00:58:06.446Z,520.00
2024-04-23T00:59:06.623Z,521.00
2024-04-23T01:00:06.621Z,522.00
2024-04-23T01:01:06.697Z,521.00
2024-04-23T01:02:06.807Z,519.00
2024-04-23T01:03:06.928Z,520.00
2024-04-23T01:04:06.932Z,523.00
2024-04-23T01:05:07.024Z,526.00
2024-04-23T01:06:06.975Z,527.00
2024-04-23T01:07:07.094Z,526.00
2024-04-23T01:08:07.205Z,525.00
2024-04-23T01:09:07.206Z,521.00
2024-04-23T01:10:07.246Z,520.00
2024-04-23T01:11:07.398Z,519.00
2024-04-23T01:12:07.376Z,518.00
2024-04-23T01:13:07.426Z,517.00
2024-04-23T01:14:07.506Z,518.00
2024-04-23T01:15:07.699Z,518.00
2024-04-23T01:16:07.658Z,519.00
2024-04-23T01:17:07.863Z,521.00
2024-04-23T01:18:07.867Z,524.00
2024-04-23T01:19:07.814Z,524.00
2024-04-23T01:20:07.934Z,525.00
2024-04-23T01:21:07.938Z,524.00
2024-04-23T01:22:08.074Z,523.00
2024-04-23T01:23:08.052Z,522.00
2024-04-23T01:24:08.262Z,522.00
2024-04-23T01:25:08.154Z,522.00
2024-04-23T01:26:08.267Z,522.00
2024-04-23T01:27:08.438Z,524.00
2024-04-23T01:28:08.456Z,526.00
2024-04-23T01:29:08.575Z,525.00
2024-04-23T01:30:08.640Z,525.00
2024-04-23T01:31:08.801Z,525.00
2024-04-23T01:32:08.891Z,525.00
2024-04-23T01:33:09.073Z,524.00
2024-04-23T01:34:09.043Z,523.00
2024-04-23T01:35:09.116Z,524.00
2024-04-23T01:36:09.153Z,522.00
2024-04-23T01:37:09.232Z,518.00
2024-04-23T01:38:09.346Z,519.00
2024-04-23T01:39:09.372Z,518.00
2024-04-23T01:40:09.560Z,519.00
2024-04-23T01:41:09.529Z,520.00
2024-04-23T01:42:09.573Z,520.00
2024-04-23T01:43:09.616Z,520.00
2024-04-23T01:44:09.686Z,519.00
2024-04-23T01:45:09.808Z,519.00
2024-04-23T01:46:09.844Z,518.00
2024-04-23T01:47:10.380Z,518.00
2024-04-23T01:48:10.078Z,520.00
2024-04-23T01:49:10.028Z,522.00
2024-04-23T01:50:10.126Z,521.00
2024-04-23T01:51:10.179Z,520.00
2024-04-23T01:52:10.252Z,518.00
2024-04-23T01:53:10.306Z,516.00
2024-04-23T01:54:10.480Z,516.00
2024-04-23T01:55:10.488Z,515.00
2024-04-23T01:56:10.514Z,515.00
2024-04-23T01:57:10.592Z,514.00
2024-04-23T01:58:10.639Z,515.00
2024-04-23T01:59:10.733Z,515.00
2024-04-23T02:00:10.815Z,514.00
2024-04-23T02:01:10.893Z,514.00
2024-04-23T02:02:10.996Z,514.00
2024-04-23T02:03:11.063Z,517.00
2024-04-23T02:04:11.088Z,517.00
2024-04-23T02:05:11.159Z,518.00
2024-04-23T02:06:11.211Z,520.00
2024-04-23T02:07:11.295Z,519.00
2024-04-23T02:08:11.407Z,519.00
2024-04-23T02:09:11.455Z,521.00
2024-04-23T02:10:11.498Z,518.00
2024-04-23T02:11:11.675Z,516.00
2024-04-23T02:12:11.662Z,517.00
2024-04-23T02:13:11.713Z,518.00
2024-04-23T02:14:11.837Z,518.00
2024-04-23T02:15:11.900Z,519.00
2024-04-23T02:16:11.948Z,518.00
2024-04-23T02:17:12.120Z,520.00
2024-04-23T02:18:12.199Z,519.00
2024-04-23T02:19:12.130Z,519.00
2024-04-23T02:20:12.204Z,521.00
2024-04-23T02:21:12.256Z,522.00
2024-04-23T02:22:12.334Z,523.00
2024-04-23T02:23:12.409Z,526.00
2024-04-23T02:24:12.457Z,527.00
2024-04-23T02:25:12.560Z,528.00
2024-04-23T02:26:12.630Z,529.00
2024-04-23T02:27:12.684Z,527.00
2024-04-23T02:28:12.748Z,523.00
2024-04-23T02:29:12.833Z,524.00
2024-04-23T02:30:12.929Z,525.00
2024-04-23T02:31:12.991Z,525.00
2024-04-23T02:32:13.089Z,523.00
2024-04-23T02:33:13.193Z,522.00
2024-04-23T02:34:13.212Z,523.00
2024-04-23T02:35:13.270Z,521.00
2024-04-23T02:36:13.324Z,521.00
2024-04-23T02:37:13.423Z,521.00
2024-04-23T02:38:13.481Z,519.00
2024-04-23T02:39:13.560Z,518.00
2024-04-23T02:40:13.593Z,518.00
2024-04-23T02:41:13.656Z,520.00
2024-04-23T02:42:13.727Z,519.00
2024-04-23T02:43:13.764Z,518.00
2024-04-23T02:44:13.922Z,515.00
2024-04-23T02:45:14.094Z,513.00
2024-04-23T02:46:14.203Z,512.00
2024-04-23T02:47:14.376Z,512.00
2024-04-23T02:48:14.536Z,511.00
2024-04-23T02:49:14.622Z,510.00
2024-04-23T02:50:14.778Z,509.00
2024-04-23T02:51:14.854Z,509.00
2024-04-23T02:52:15.012Z,509.00
2024-04-23T02:53:15.096Z,511.00
2024-04-23T02:54:15.223Z,513.00
2024-04-23T02:55:15.411Z,514.00
2024-04-23T02:56:15.462Z,514.00
2024-04-23T02:57:15.650Z,515.00
2024-04-23T02:58:15.780Z,516.00
2024-04-23T02:59:15.932Z,517.00
2024-04-23T03:00:16.045Z,515.00
2024-04-23T03:01:16.172Z,515.00
2024-04-23T03:02:16.646Z,516.00
2024-04-23T03:03:16.364Z,517.00
2024-04-23T03:04:16.422Z,515.00
2024-04-23T03:05:16.495Z,515.00
2024-04-23T03:06:16.574Z,515.00
2024-04-23T03:07:16.648Z,515.00
2024-04-23T03:08:16.722Z,517.00
2024-04-23T03:09:16.766Z,517.00
2024-04-23T03:10:16.858Z,516.00
2024-04-23T03:11:17.033Z,516.00
2024-04-23T03:12:17.059Z,514.00
2024-04-23T03:13:17.062Z,512.00
2024-04-23T03:14:17.099Z,511.00
2024-04-23T03:15:17.191Z,510.00
2024-04-23T03:16:17.251Z,512.00
2024-04-23T03:17:17.342Z,513.00
2024-04-23T03:18:17.475Z,513.00
2024-04-23T03:19:17.445Z,514.00
2024-04-23T03:20:17.513Z,513.00
2024-04-23T03:21:17.632Z,513.00
2024-04-23T03:22:17.646Z,514.00
2024-04-23T03:23:17.725Z,514.00
2024-04-23T03:24:17.735Z,513.00
2024-04-23T03:25:17.911Z,512.00
2024-04-23T03:26:17.996Z,513.00
2024-04-23T03:27:18.109Z,512.00
2024-04-23T03:28:18.219Z,512.00
2024-04-23T03:29:18.394Z,512.00
2024-04-23T03:30:18.456Z,510.00
2024-04-23T03:31:18.571Z,510.00
2024-04-23T03:32:18.843Z,509.00
2024-04-23T03:33:18.865Z,506.00
2024-04-23T03:34:18.948Z,505.00
2024-04-23T03:35:19.095Z,507.00
2024-04-23T03:36:19.194Z,507.00
2024-04-23T03:37:19.365Z,509.00
2024-04-23T03:38:19.511Z,510.00
2024-04-23T03:39:19.631Z,511.00
2024-04-23T03:40:19.778Z,514.00
2024-04-23T03:41:19.855Z,513.00
2024-04-23T03:42:20.019Z,513.00
2024-04-23T03:43:20.122Z,513.00
2024-04-23T03:44:20.228Z,513.00
2024-04-23T03:45:20.389Z,512.00
2024-04-23T03:46:20.551Z,512.00
2024-04-23T03:47:20.702Z,508.00
2024-04-23T03:48:20.874Z,506.00
2024-04-23T03:49:20.925Z,506.00
2024-04-23T03:50:22.701Z,505.00
2024-04-23T03:51:21.097Z,506.00
2024-04-23T03:52:21.108Z,509.00
2024-04-23T03:53:21.075Z,509.00
2024-04-23T03:54:21.072Z,508.00
2024-04-23T03:55:21.074Z,508.00
2024-04-23T03:56:21.087Z,508.00
2024-04-23T03:57:24.008Z,506.00
2024-04-23T03:58:21.097Z,506.00
2024-04-23T03:59:21.095Z,505.00
2024-04-23T04:00:21.083Z,506.00
2024-04-23T04:01:21.068Z,504.00
2024-04-23T04:02:21.204Z,503.00
2024-04-23T04:03:21.093Z,502.00
2024-04-23T04:04:21.095Z,501.00
2024-04-23T04:05:21.069Z,501.00
2024-04-23T04:06:21.066Z,501.00
2024-04-23T04:07:21.109Z,500.00
2024-04-23T04:08:21.061Z,501.00
2024-04-23T04:09:21.115Z,501.00
2024-04-23T04:10:21.136Z,502.00
2024-04-23T04:11:21.163Z,503.00
2024-04-23T04:12:21.085Z,502.00
2024-04-23T04:13:23.971Z,503.00
2024-04-23T04:14:21.100Z,503.00
2024-04-23T04:15:21.104Z,503.00
2024-04-23T04:16:21.065Z,505.00
2024-04-23T04:17:21.156Z,506.00
2024-04-23T04:18:21.176Z,508.00
2024-04-23T04:19:21.078Z,509.00
2024-04-23T04:20:21.102Z,507.00
2024-04-23T04:21:21.104Z,507.00
2024-04-23T04:22:21.133Z,505.00
2024-04-23T04:23:21.127Z,506.00
2024-04-23T04:24:21.130Z,505.00
2024-04-23T04:25:21.082Z,504.00
2024-04-23T04:26:21.088Z,505.00
2024-04-23T04:27:21.091Z,508.00
2024-04-23T04:28:21.087Z,507.00
2024-04-23T04:29:21.091Z,508.00
2024-04-23T04:30:29.051Z,514.00
2024-04-23T04:31:36.992Z,530.00
2024-04-23T04:32:37.251Z,526.00
2024-04-23T04:33:37.368Z,525.00
2024-04-23T04:34:37.520Z,521.00
2024-04-23T04:35:37.617Z,521.00
2024-04-23T04:36:37.766Z,519.00
2024-04-23T04:37:37.946Z,518.00
2024-04-23T04:38:37.939Z,517.00
2024-04-23T04:39:38.064Z,517.00
2024-04-23T04:40:38.247Z,517.00
2024-04-23T04:41:38.339Z,515.00
2024-04-23T04:42:38.524Z,515.00
2024-04-23T04:43:38.732Z,514.00
2024-04-23T04:44:38.866Z,515.00
2024-04-23T04:45:38.982Z,513.00
2024-04-23T04:46:39.280Z,513.00
2024-04-23T04:47:39.542Z,510.00
2024-04-23T04:48:39.590Z,513.00
2024-04-23T04:49:39.788Z,515.00
2024-04-23T04:50:39.939Z,518.00
2024-04-23T04:51:39.989Z,518.00
2024-04-23T04:52:40.283Z,517.00
2024-04-23T04:53:40.403Z,517.00
2024-04-23T04:54:40.583Z,513.00
2024-04-23T04:55:40.797Z,509.00
2024-04-23T04:56:40.937Z,510.00
2024-04-23T04:57:41.136Z,511.00
2024-04-23T04:58:41.294Z,508.00
2024-04-23T04:59:41.334Z,508.00
2024-04-23T05:00:43.955Z,507.00
2024-04-23T05:01:41.619Z,508.00
2024-04-23T05:02:41.603Z,508.00
2024-04-23T05:03:41.600Z,508.00
2024-04-23T05:04:41.621Z,508.00
2024-04-23T05:05:41.572Z,509.00
2024-04-23T05:06:41.591Z,510.00
2024-04-23T05:07:41.606Z,509.00
2024-04-23T05:08:41.601Z,508.00
2024-04-23T05:09:41.584Z,507.00
2024-04-23T05:10:41.625Z,507.00
2024-04-23T05:11:41.607Z,508.00
2024-04-23T05:12:41.610Z,511.00
2024-04-23T05:13:41.619Z,511.00
2024-04-23T05:14:41.582Z,510.00
2024-04-23T05:15:41.611Z,511.00
2024-04-23T05:16:41.562Z,511.00
2024-04-23T05:17:41.662Z,508.00
2024-04-23T05:18:41.582Z,508.00
2024-04-23T05:19:41.627Z,506.00
2024-04-23T05:20:41.615Z,505.00
2024-04-23T05:21:41.582Z,504.00
2024-04-23T05:22:41.627Z,504.00
2024-04-23T05:23:41.589Z,503.00
2024-04-23T05:24:41.573Z,502.00
2024-04-23T05:25:41.604Z,505.00
2024-04-23T05:26:41.648Z,507.00
2024-04-23T05:27:41.570Z,507.00
2024-04-23T05:28:41.590Z,508.00
2024-04-23T05:29:41.572Z,506.00
2024-04-23T05:30:41.568Z,507.00
2024-04-23T05:31:41.589Z,507.00
2024-04-23T05:32:41.643Z,505.00
2024-04-23T05:33:41.663Z,506.00
2024-04-23T05:34:41.581Z,506.00
2024-04-23T05:35:41.557Z,505.00
2024-04-23T05:36:41.598Z,508.00
2024-04-23T05:37:41.620Z,517.00
2024-04-23T05:38:41.620Z,540.00
2024-04-23T05:39:41.576Z,626.00
2024-04-23T05:40:41.616Z,652.00
2024-04-23T05:41:41.602Z,665.00
2024-04-23T05:42:41.623Z,689.00
2024-04-23T05:43:41.998Z,687.00
2024-04-23T05:44:41.576Z,710.00
2024-04-23T05:45:41.585Z,720.00
2024-04-23T05:46:41.818Z,729.00
2024-04-23T05:47:41.775Z,780.00
2024-04-23T05:48:41.672Z,777.00
2024-04-23T05:49:41.614Z,786.00
2024-04-23T05:50:42.408Z,798.00
2024-04-23T05:51:41.554Z,807.00
2024-04-23T05:52:41.624Z,817.00
2024-04-23T05:53:41.610Z,827.00
2024-04-23T05:54:41.735Z,838.00
2024-04-23T05:55:43.957Z,855.00
2024-04-23T05:56:41.705Z,859.00
2024-04-23T05:57:41.720Z,869.00
2024-04-23T05:58:41.886Z,881.00
2024-04-23T05:59:41.765Z,887.00
2024-04-23T06:00:41.998Z,895.00
2024-04-23T06:01:41.754Z,902.00
2024-04-23T06:02:41.818Z,912.00
2024-04-23T06:03:41.755Z,921.00
2024-04-23T06:04:41.874Z,930.00
2024-04-23T06:05:41.760Z,959.00
2024-04-23T06:06:41.808Z,987.00
2024-04-23T06:07:42.892Z,971.00
2024-04-23T06:08:41.740Z,977.00
2024-04-23T06:09:41.920Z,986.00
2024-04-23T06:10:41.861Z,996.00
2024-04-23T06:11:41.904Z,994.00
2024-04-23T06:12:41.932Z,993.00
2024-04-23T06:13:41.785Z,998.00
2024-04-23T06:14:42.430Z,998.00
2024-04-23T06:15:41.780Z,1006.00
2024-04-23T06:16:41.950Z,1009.00
2024-04-23T06:17:47.918Z,1010.00
2024-04-23T06:18:43.144Z,1010.00
2024-04-23T06:19:42.010Z,1012.00
2024-04-23T06:20:42.013Z,1012.00
2024-04-23T06:21:42.070Z,1018.00
2024-04-23T06:22:42.758Z,1021.00
2024-04-23T06:23:42.113Z,1035.00
2024-04-23T06:24:42.124Z,1044.00
2024-04-23T06:25:42.146Z,1063.00
2024-04-23T06:26:48.168Z,1072.00
2024-04-23T06:27:43.239Z,1077.00
2024-04-23T06:28:43.482Z,1080.00
2024-04-23T06:29:42.467Z,1082.00
2024-04-23T06:30:42.171Z,1085.00
2024-04-23T06:31:42.248Z,1088.00
2024-04-23T06:32:42.334Z,1091.00
2024-04-23T06:33:42.193Z,1094.00
2024-04-23T06:34:42.238Z,1097.00
2024-04-23T06:35:42.225Z,1099.00
2024-04-23T06:36:42.173Z,1093.00
2024-04-23T06:37:42.441Z,1095.00
2024-04-23T06:38:42.257Z,1093.00
2024-04-23T06:39:42.197Z,1091.00
2024-04-23T06:40:42.214Z,1095.00
2024-04-23T06:41:42.307Z,899.00
2024-04-23T06:42:47.911Z,848.00
2024-04-23T06:43:48.498Z,831.00
2024-04-23T06:44:43.935Z,894.00
2024-04-23T06:45:43.879Z,911.00
2024-04-23T06:46:42.305Z,924.00
2024-04-23T06:47:42.330Z,920.00
2024-04-23T06:48:42.237Z,928.00
2024-04-23T06:49:42.299Z,936.00
2024-04-23T06:50:42.204Z,943.00
2024-04-23T06:51:42.196Z,949.00
2024-04-23T06:52:42.996Z,951.00
2024-04-23T06:53:42.245Z,961.00
2024-04-23T06:54:42.291Z,967.00
2024-04-23T06:55:42.334Z,976.00
2024-04-23T06:56:42.466Z,985.00
2024-04-23T06:57:42.247Z,995.00
2024-04-23T06:58:42.363Z,1003.00
2024-04-23T06:59:42.276Z,1007.00
2024-04-23T07:00:42.326Z,1010.00
2024-04-23T07:01:42.539Z,1013.00
2024-04-23T07:02:42.343Z,1014.00
2024-04-23T07:03:42.389Z,1020.00
2024-04-23T07:04:42.413Z,1019.00
2024-04-23T07:05:42.385Z,1026.00
2024-04-23T07:06:42.479Z,1035.00
2024-04-23T07:07:42.441Z,1042.00
2024-04-23T07:08:42.492Z,1046.00
2024-04-23T07:09:42.436Z,1052.00
2024-04-23T07:10:42.995Z,1057.00
2024-04-23T07:11:42.452Z,1063.00
2024-04-23T07:12:42.523Z,1069.00
2024-04-23T07:13:42.586Z,1070.00
2024-04-23T07:14:42.681Z,1071.00
2024-04-23T07:15:42.473Z,1073.00
2024-04-23T07:16:43.009Z,1072.00
2024-04-23T07:17:42.619Z,1071.00
2024-04-23T07:18:53.154Z,1070.00
2024-04-23T07:19:44.014Z,1069.00
2024-04-23T07:20:42.568Z,1071.00
2024-04-23T07:21:42.816Z,1071.00
2024-04-23T07:22:42.610Z,1073.00
2024-04-23T07:23:42.599Z,1077.00
2024-04-23T07:24:43.011Z,1080.00
2024-04-23T07:25:42.656Z,1085.00
2024-04-23T07:26:42.559Z,1087.00
2024-04-23T07:27:42.560Z,1088.00
2024-04-23T07:28:42.579Z,1090.00
2024-04-23T07:29:42.629Z,1093.00
2024-04-23T07:30:42.741Z,1091.00
2024-04-23T07:31:42.896Z,1093.00
2024-04-23T07:32:42.973Z,959.00
2024-04-23T07:33:43.134Z,854.00
2024-04-23T07:34:42.924Z,820.00
2024-04-23T07:35:43.089Z,773.00
2024-04-23T07:36:46.513Z,786.00
2024-04-23T07:37:43.055Z,811.00
2024-04-23T07:38:43.099Z,874.00
2024-04-23T07:39:43.091Z,873.00
2024-04-23T07:40:43.066Z,881.00
2024-04-23T07:41:43.140Z,876.00
2024-04-23T07:42:44.066Z,879.00
2024-04-23T07:43:43.151Z,877.00
2024-04-23T07:44:44.025Z,879.00
2024-04-23T07:45:44.106Z,883.00
2024-04-23T07:46:43.059Z,884.00
2024-04-23T07:47:43.110Z,884.00
2024-04-23T07:48:43.136Z,885.00
2024-04-23T07:49:44.996Z,888.00
2024-04-23T07:50:43.033Z,888.00
2024-04-23T07:51:43.126Z,887.00
2024-04-23T07:52:43.070Z,885.00
2024-04-23T07:53:44.158Z,884.00
2024-04-23T07:54:43.065Z,884.00
2024-04-23T07:55:43.079Z,881.00
2024-04-23T07:56:44.728Z,881.00
2024-04-23T07:57:43.574Z,883.00
2024-04-23T07:58:43.202Z,884.00
2024-04-23T07:59:43.124Z,885.00
2024-04-23T08:00:45.000Z,883.00
2024-04-23T08:01:43.171Z,886.00
2024-04-23T08:02:43.269Z,887.00
2024-04-23T08:03:43.721Z,887.00
2024-04-23T08:04:43.200Z,889.00
2024-04-23T08:05:43.502Z,891.00
2024-04-23T08:06:43.090Z,893.00
2024-04-23T08:07:43.652Z,893.00
2024-04-23T08:08:43.060Z,893.00
2024-04-23T08:09:43.071Z,892.00
2024-04-23T08:10:43.092Z,890.00
2024-04-23T08:11:44.252Z,894.00
2024-04-23T08:12:43.030Z,895.00
2024-04-23T08:13:43.099Z,895.00
2024-04-23T08:14:44.150Z,899.00
2024-04-23T08:15:43.048Z,905.00
2024-04-23T08:16:43.282Z,913.00
2024-04-23T08:17:43.225Z,915.00
2024-04-23T08:18:43.161Z,915.00
2024-04-23T08:19:44.627Z,919.00
2024-04-23T08:20:43.485Z,920.00
2024-04-23T08:21:43.165Z,918.00
2024-04-23T08:22:43.124Z,921.00
2024-04-23T08:23:43.063Z,917.00
2024-04-23T08:24:43.063Z,913.00
2024-04-23T08:25:45.665Z,923.00
2024-04-23T08:26:43.084Z,931.00
2024-04-23T08:27:43.477Z,945.00
2024-04-23T08:28:43.099Z,967.00
2024-04-23T08:29:43.130Z,969.00
2024-04-23T08:30:43.112Z,974.00
2024-04-23T08:31:43.074Z,978.00
2024-04-23T08:32:43.592Z,980.00
2024-04-23T08:33:43.199Z,994.00
2024-04-23T08:34:43.110Z,934.00
2024-04-23T08:35:43.510Z,894.00
2024-04-23T08:36:43.097Z,892.00
2024-04-23T08:37:43.188Z,888.00
2024-04-23T08:38:43.120Z,889.00
2024-04-23T08:39:43.561Z,944.00
2024-04-23T08:40:43.404Z,1015.00
2024-04-23T08:41:43.172Z,983.00
2024-04-23T08:42:43.072Z,974.00
2024-04-23T08:43:43.145Z,970.00
2024-04-23T08:44:44.034Z,961.00
2024-04-23T08:45:43.550Z,956.00
2024-04-23T08:46:43.171Z,964.00
2024-04-23T08:47:43.264Z,965.00
2024-04-23T08:48:44.042Z,968.00
2024-04-23T08:49:43.202Z,973.00
2024-04-23T08:50:43.088Z,975.00
2024-04-23T08:51:43.103Z,978.00
2024-04-23T08:52:46.026Z,978.00
2024-04-23T08:53:43.096Z,977.00
2024-04-23T08:54:43.928Z,977.00
2024-04-23T08:55:43.160Z,975.00
2024-04-23T08:56:43.138Z,975.00
2024-04-23T08:57:43.173Z,973.00
2024-04-23T08:58:43.803Z,975.00
2024-04-23T08:59:43.166Z,971.00
2024-04-23T09:00:51.473Z,968.00
2024-04-23T09:01:44.259Z,967.00
2024-04-23T09:02:43.347Z,969.00
2024-04-23T09:03:43.162Z,970.00
2024-04-23T09:04:43.479Z,968.00
2024-04-23T09:05:43.136Z,971.00
2024-04-23T09:06:43.128Z,975.00
2024-04-23T09:07:43.194Z,976.00
2024-04-23T09:08:44.550Z,982.00
2024-04-23T09:09:44.030Z,984.00
2024-04-23T09:10:43.216Z,985.00
2024-04-23T09:11:45.376Z,989.00
2024-04-23T09:12:43.189Z,991.00
2024-04-23T09:13:43.210Z,996.00
2024-04-23T09:14:43.622Z,998.00
2024-04-23T09:15:43.161Z,1000.00
2024-04-23T09:16:43.327Z,1000.00
2024-04-23T09:17:43.308Z,1001.00
2024-04-23T09:18:44.013Z,1002.00
2024-04-23T09:19:43.228Z,1002.00
2024-04-23T09:20:43.545Z,1006.00
2024-04-23T09:21:45.089Z,1009.00
2024-04-23T09:22:44.870Z,1002.00
2024-04-23T09:23:43.174Z,997.00
2024-04-23T09:24:43.339Z,995.00
2024-04-23T09:25:43.173Z,999.00
2024-04-23T09:26:43.186Z,1001.00
2024-04-23T09:27:44.571Z,996.00
2024-04-23T09:28:43.318Z,986.00
2024-04-23T09:29:43.260Z,982.00
2024-04-23T09:30:43.932Z,980.00
2024-04-23T09:31:43.414Z,980.00
2024-04-23T09:32:43.634Z,973.00
2024-04-23T09:33:43.641Z,955.00
2024-04-23T09:34:43.607Z,944.00
2024-04-23T09:35:43.588Z,934.00
2024-04-23T09:36:43.697Z,888.00
2024-04-23T09:37:43.816Z,869.00
2024-04-23T09:38:43.932Z,859.00
2024-04-23T09:39:46.573Z,845.00
2024-04-23T09:40:43.978Z,833.00
2024-04-23T09:41:44.120Z,820.00
2024-04-23T09:42:44.597Z,813.00
2024-04-23T09:43:43.874Z,799.00
2024-04-23T09:44:43.906Z,788.00
2024-04-23T09:45:43.877Z,778.00
2024-04-23T09:46:44.068Z,769.00
2024-04-23T09:47:44.013Z,756.00
2024-04-23T09:48:44.178Z,748.00
2024-04-23T09:49:43.919Z,739.00
2024-04-23T09:50:43.897Z,731.00
2024-04-23T09:51:44.014Z,726.00
2024-04-23T09:52:43.917Z,719.00
2024-04-23T09:53:43.869Z,713.00
2024-04-23T09:54:43.884Z,710.00
2024-04-23T09:55:43.920Z,710.00
2024-04-23T09:56:44.045Z,706.00
2024-04-23T09:57:43.900Z,699.00
2024-04-23T09:58:43.917Z,696.00
2024-04-23T09:59:43.930Z,687.00
2024-04-23T10:00:43.937Z,683.00
2024-04-23T10:01:43.953Z,678.00
2024-04-23T10:02:44.042Z,674.00
2024-04-23T10:03:43.981Z,670.00
2024-04-23T10:04:43.992Z,666.00
2024-04-23T10:05:43.969Z,661.00
2024-04-23T10:06:44.072Z,661.00
2024-04-23T10:07:43.931Z,661.00
2024-04-23T10:08:43.919Z,659.00
2024-04-23T10:09:43.929Z,660.00
2024-04-23T10:10:44.150Z,660.00
2024-04-23T10:11:44.149Z,698.00
2024-04-23T10:12:44.682Z,706.00
2024-04-23T10:13:44.204Z,703.00
2024-04-23T10:14:44.222Z,702.00
2024-04-23T10:15:44.276Z,703.00
2024-04-23T10:16:44.419Z,702.00
2024-04-23T10:17:44.658Z,701.00
2024-04-23T10:18:46.114Z,698.00
2024-04-23T10:19:44.663Z,693.00
2024-04-23T10:20:44.632Z,689.00
2024-04-23T10:21:44.704Z,684.00
2024-04-23T10:22:44.829Z,681.00
2024-04-23T10:23:44.814Z,680.00
2024-04-23T10:24:44.864Z,679.00
2024-04-23T10:25:44.936Z,679.00
2024-04-23T10:26:44.961Z,683.00
2024-04-23T10:27:45.028Z,686.00
2024-04-23T10:28:45.102Z,684.00
2024-04-23T10:29:45.153Z,680.00
2024-04-23T10:30:45.194Z,670.00
2024-04-23T10:31:45.354Z,663.00
2024-04-23T10:32:45.502Z,658.00
2024-04-23T10:33:45.567Z,654.00
2024-04-23T10:34:45.461Z,651.00
2024-04-23T10:35:45.487Z,649.00
2024-04-23T10:36:45.496Z,645.00
2024-04-23T10:37:45.488Z,641.00
2024-04-23T10:38:45.470Z,636.00
2024-04-23T10:39:45.527Z,634.00
2024-04-23T10:40:52.128Z,635.00
2024-04-23T10:41:46.578Z,636.00
2024-04-23T10:42:45.545Z,639.00
2024-04-23T10:43:45.592Z,641.00
2024-04-23T10:44:45.559Z,640.00
2024-04-23T10:45:45.620Z,642.00
2024-04-23T10:46:45.604Z,644.00
2024-04-23T10:47:45.592Z,645.00
2024-04-23T10:48:45.682Z,645.00
2024-04-23T10:49:45.662Z,647.00
2024-04-23T10:50:45.541Z,653.00
2024-04-23T10:51:45.571Z,659.00
2024-04-23T10:52:45.567Z,660.00
2024-04-23T10:53:45.565Z,664.00
2024-04-23T10:54:45.577Z,667.00
2024-04-23T10:55:45.589Z,671.00
2024-04-23T10:56:45.573Z,673.00
2024-04-23T10:57:45.600Z,678.00
2024-04-23T10:58:45.674Z,681.00
2024-04-23T10:59:45.773Z,683.00
2024-04-23T11:00:45.913Z,684.00
2024-04-23T11:01:45.897Z,684.00
2024-04-23T11:02:45.971Z,686.00
2024-04-23T11:03:46.115Z,687.00
2024-04-23T11:04:46.179Z,685.00
2024-04-23T11:05:46.062Z,684.00
2024-04-23T11:06:46.131Z,687.00
2024-04-23T11:07:46.198Z,691.00
2024-04-23T11:08:46.240Z,696.00
2024-04-23T11:09:46.309Z,697.00
2024-04-23T11:10:46.493Z,697.00
2024-04-23T11:11:46.461Z,697.00
2024-04-23T11:12:46.416Z,694.00
2024-04-23T11:13:46.479Z,694.00
2024-04-23T11:14:46.554Z,694.00
2024-04-23T11:15:46.544Z,694.00
2024-04-23T11:16:46.648Z,693.00
2024-04-23T11:17:46.650Z,692.00
2024-04-23T11:18:47.654Z,691.00
2024-04-23T11:19:46.687Z,686.00
2024-04-23T11:20:46.731Z,682.00
2024-04-23T11:21:46.780Z,680.00
2024-04-23T11:22:46.911Z,680.00
2024-04-23T11:23:46.818Z,678.00
2024-04-23T11:24:46.863Z,678.00
2024-04-23T11:25:46.994Z,674.00
2024-04-23T11:26:46.906Z,673.00
2024-04-23T11:27:46.988Z,673.00
2024-04-23T11:28:47.043Z,676.00
2024-04-23T11:29:47.083Z,687.00
2024-04-23T11:30:47.115Z,697.00
2024-04-23T11:31:47.141Z,705.00
2024-04-23T11:32:47.308Z,708.00
2024-04-23T11:33:47.347Z,711.00
2024-04-23T11:34:47.336Z,711.00
2024-04-23T11:35:47.286Z,709.00
2024-04-23T11:36:47.352Z,708.00
2024-04-23T11:37:47.434Z,705.00
2024-04-23T11:38:47.509Z,705.00
2024-04-23T11:39:47.477Z,702.00
2024-04-23T11:40:47.557Z,698.00
2024-04-23T11:41:47.556Z,693.00
2024-04-23T11:42:47.641Z,691.00
2024-04-23T11:43:47.624Z,687.00
2024-04-23T11:44:47.654Z,682.00
2024-04-23T11:45:47.726Z,676.00
2024-04-23T11:46:47.868Z,675.00
2024-04-23T11:47:47.898Z,676.00
2024-04-23T11:48:47.799Z,672.00
2024-04-23T11:49:47.898Z,671.00
2024-04-23T11:50:47.870Z,669.00
2024-04-23T11:51:47.911Z,669.00
2024-04-23T11:52:48.013Z,670.00
2024-04-23T11:53:48.008Z,671.00
2024-04-23T11:54:48.076Z,673.00
2024-04-23T11:55:48.108Z,672.00
2024-04-23T11:56:48.201Z,673.00
2024-04-23T11:57:49.546Z,673.00
2024-04-23T11:58:48.285Z,672.00
2024-04-23T11:59:48.376Z,671.00
2024-04-23T12:00:48.435Z,669.00
2024-04-23T12:01:48.533Z,676.00
2024-04-23T12:02:48.568Z,697.00
2024-04-23T12:03:50.126Z,699.00
2024-04-23T12:04:48.756Z,716.00
2024-04-23T12:05:48.843Z,808.00
2024-04-23T12:06:48.829Z,805.00
2024-04-23T12:07:48.748Z,812.00
2024-04-23T12:08:48.744Z,816.00
2024-04-23T12:09:49.895Z,831.00
2024-04-23T12:10:48.752Z,829.00
2024-04-23T12:11:48.815Z,822.00
2024-04-23T12:12:48.710Z,747.00
2024-04-23T12:13:48.811Z,746.00
2024-04-23T12:14:48.774Z,745.00
2024-04-23T12:15:50.224Z,750.00
2024-04-23T12:16:48.965Z,752.00
2024-04-23T12:17:49.008Z,743.00
2024-04-23T12:18:49.422Z,736.00
2024-04-23T12:19:49.016Z,731.00
2024-04-23T12:20:49.005Z,733.00
2024-04-23T12:21:49.027Z,726.00
2024-04-23T12:22:49.030Z,721.00
2024-04-23T12:23:49.035Z,720.00
2024-04-23T12:24:49.030Z,712.00
2024-04-23T12:25:49.089Z,709.00
2024-04-23T12:26:49.056Z,702.00